sensor_id;sensor_type;location;lat;lon;timestamp;temperature;humidity
25732;DHT22;13585;50.864;4.406;2023-06-19T00:01:25;30.20;47.20
25732;DHT22;13585;50.864;4.406;2023-06-19T00:03:51;30.20;47.20
25732;DHT22;13585;50.864;4.406;2023-06-19T00:06:16;30.20;47.20
25732;DHT22;13585;50.864;4.406;2023-06-19T00:08:47;30.20;47.20
25732;DHT22;13585;50.864;4.406;2023-06-19T00:11:12;30.20;47.30
25732;DHT22;13585;50.864;4.406;2023-06-19T00:13:38;30.20;47.30
25732;DHT22;13585;50.864;4.406;2023-06-19T00:16:09;30.20;47.30
25732;DHT22;13585;50.864;4.406;2023-06-19T00:18:38;30.20;47.40
25732;DHT22;13585;50.864;4.406;2023-06-19T00:21:06;30.20;47.30
25732;DHT22;13585;50.864;4.406;2023-06-19T00:23:33;30.20;47.30
25732;DHT22;13585;50.864;4.406;2023-06-19T00:26:08;30.20;47.40
25732;DHT22;13585;50.864;4.406;2023-06-19T00:28:34;30.10;47.50
25732;DHT22;13585;50.864;4.406;2023-06-19T00:31:00;30.20;47.40
25732;DHT22;13585;50.864;4.406;2023-06-19T00:33:25;30.20;48.10
25732;DHT22;13585;50.864;4.406;2023-06-19T00:35:51;30.20;47.50
25732;DHT22;13585;50.864;4.406;2023-06-19T00:38:19;30.20;47.50
25732;DHT22;13585;50.864;4.406;2023-06-19T00:40:49;30.10;47.50
25732;DHT22;13585;50.864;4.406;2023-06-19T00:43:14;30.10;47.50
25732;DHT22;13585;50.864;4.406;2023-06-19T00:45:40;30.20;48.20
25732;DHT22;13585;50.864;4.406;2023-06-19T00:48:06;30.10;47.50
25732;DHT22;13585;50.864;4.406;2023-06-19T00:50:32;30.10;47.60
25732;DHT22;13585;50.864;4.406;2023-06-19T00:52:58;30.10;47.60
25732;DHT22;13585;50.864;4.406;2023-06-19T00:55:27;30.10;47.50
25732;DHT22;13585;50.864;4.406;2023-06-19T00:57:54;30.10;47.60
25732;DHT22;13585;50.864;4.406;2023-06-19T01:00:20;30.20;47.70
25732;DHT22;13585;50.864;4.406;2023-06-19T01:02:46;30.20;47.70
25732;DHT22;13585;50.864;4.406;2023-06-19T01:05:13;30.10;47.70
25732;DHT22;13585;50.864;4.406;2023-06-19T01:07:46;30.10;47.70
25732;DHT22;13585;50.864;4.406;2023-06-19T01:10:21;30.10;47.70
25732;DHT22;13585;50.864;4.406;2023-06-19T01:12:56;30.10;47.70
25732;DHT22;13585;50.864;4.406;2023-06-19T01:15:22;30.10;47.80
25732;DHT22;13585;50.864;4.406;2023-06-19T01:17:51;30.10;47.70
25732;DHT22;13585;50.864;4.406;2023-06-19T01:20:20;30.10;47.80
25732;DHT22;13585;50.864;4.406;2023-06-19T01:22:46;30.10;47.80
25732;DHT22;13585;50.864;4.406;2023-06-19T01:25:11;30.10;47.80
25732;DHT22;13585;50.864;4.406;2023-06-19T01:27:41;30.10;47.80
25732;DHT22;13585;50.864;4.406;2023-06-19T01:30:11;30.10;47.90
25732;DHT22;13585;50.864;4.406;2023-06-19T01:35:57;30.00;47.90
25732;DHT22;13585;50.864;4.406;2023-06-19T01:38:25;30.10;47.80
25732;DHT22;13585;50.864;4.406;2023-06-19T01:40:55;30.10;47.90
25732;DHT22;13585;50.864;4.406;2023-06-19T01:43:23;30.10;47.90
25732;DHT22;13585;50.864;4.406;2023-06-19T01:45:49;30.10;48.00
25732;DHT22;13585;50.864;4.406;2023-06-19T01:48:18;30.00;47.90
25732;DHT22;13585;50.864;4.406;2023-06-19T01:50:48;30.10;48.10
25732;DHT22;13585;50.864;4.406;2023-06-19T01:53:17;30.10;48.10
25732;DHT22;13585;50.864;4.406;2023-06-19T01:55:45;30.10;48.00
25732;DHT22;13585;50.864;4.406;2023-06-19T01:58:15;30.00;48.10
25732;DHT22;13585;50.864;4.406;2023-06-19T02:00:40;30.10;48.10
25732;DHT22;13585;50.864;4.406;2023-06-19T02:03:06;30.10;48.10
25732;DHT22;13585;50.864;4.406;2023-06-19T02:05:33;30.10;48.20
25732;DHT22;13585;50.864;4.406;2023-06-19T02:07:59;30.10;48.20
25732;DHT22;13585;50.864;4.406;2023-06-19T02:10:25;30.00;48.20
25732;DHT22;13585;50.864;4.406;2023-06-19T02:12:54;30.00;48.20
25732;DHT22;13585;50.864;4.406;2023-06-19T02:15:19;30.00;48.30
25732;DHT22;13585;50.864;4.406;2023-06-19T02:17:46;30.00;48.30
25732;DHT22;13585;50.864;4.406;2023-06-19T02:20:13;30.00;48.30
25732;DHT22;13585;50.864;4.406;2023-06-19T02:22:45;30.00;48.30
25732;DHT22;13585;50.864;4.406;2023-06-19T02:25:16;30.00;48.30
25732;DHT22;13585;50.864;4.406;2023-06-19T02:27:45;30.10;48.30
25732;DHT22;13585;50.864;4.406;2023-06-19T02:30:14;30.10;48.40
25732;DHT22;13585;50.864;4.406;2023-06-19T02:32:39;30.00;48.30
25732;DHT22;13585;50.864;4.406;2023-06-19T02:35:06;30.00;48.40
25732;DHT22;13585;50.864;4.406;2023-06-19T02:37:34;30.00;48.40
25732;DHT22;13585;50.864;4.406;2023-06-19T02:40:05;30.00;48.40
25732;DHT22;13585;50.864;4.406;2023-06-19T02:42:31;30.00;48.40
25732;DHT22;13585;50.864;4.406;2023-06-19T02:44:58;30.00;48.40
25732;DHT22;13585;50.864;4.406;2023-06-19T02:47:29;30.00;48.50
25732;DHT22;13585;50.864;4.406;2023-06-19T02:49:56;30.00;48.50
25732;DHT22;13585;50.864;4.406;2023-06-19T02:52:23;30.00;48.50
25732;DHT22;13585;50.864;4.406;2023-06-19T02:54:51;30.00;48.50
25732;DHT22;13585;50.864;4.406;2023-06-19T02:57:17;30.00;48.60
25732;DHT22;13585;50.864;4.406;2023-06-19T02:59:46;30.00;48.60
25732;DHT22;13585;50.864;4.406;2023-06-19T03:02:14;30.00;48.60
25732;DHT22;13585;50.864;4.406;2023-06-19T03:04:40;30.00;48.60
25732;DHT22;13585;50.864;4.406;2023-06-19T03:07:09;30.00;48.60
25732;DHT22;13585;50.864;4.406;2023-06-19T03:09:35;30.00;48.60
25732;DHT22;13585;50.864;4.406;2023-06-19T03:12:05;30.00;48.70
25732;DHT22;13585;50.864;4.406;2023-06-19T03:14:30;30.00;48.70
25732;DHT22;13585;50.864;4.406;2023-06-19T03:16:56;30.00;48.80
25732;DHT22;13585;50.864;4.406;2023-06-19T03:19:22;30.00;48.80
25732;DHT22;13585;50.864;4.406;2023-06-19T03:21:50;30.00;48.80
25732;DHT22;13585;50.864;4.406;2023-06-19T03:24:16;30.00;48.80
25732;DHT22;13585;50.864;4.406;2023-06-19T03:26:44;30.00;49.00
25732;DHT22;13585;50.864;4.406;2023-06-19T03:29:13;30.00;48.90
25732;DHT22;13585;50.864;4.406;2023-06-19T03:31:41;30.00;49.00
25732;DHT22;13585;50.864;4.406;2023-06-19T03:34:09;30.00;49.10
25732;DHT22;13585;50.864;4.406;2023-06-19T03:36:34;30.00;49.00
25732;DHT22;13585;50.864;4.406;2023-06-19T03:39:00;30.00;49.10
25732;DHT22;13585;50.864;4.406;2023-06-19T03:41:29;30.00;49.00
25732;DHT22;13585;50.864;4.406;2023-06-19T03:43:57;30.00;49.10
25732;DHT22;13585;50.864;4.406;2023-06-19T03:46:23;30.00;49.00
25732;DHT22;13585;50.864;4.406;2023-06-19T03:48:58;30.00;49.00
25732;DHT22;13585;50.864;4.406;2023-06-19T03:51:23;30.00;49.00
25732;DHT22;13585;50.864;4.406;2023-06-19T03:53:49;30.00;48.90
25732;DHT22;13585;50.864;4.406;2023-06-19T03:56:20;30.00;48.90
25732;DHT22;13585;50.864;4.406;2023-06-19T03:58:47;30.00;48.90
25732;DHT22;13585;50.864;4.406;2023-06-19T04:01:15;30.00;48.80
25732;DHT22;13585;50.864;4.406;2023-06-19T04:03:46;29.90;48.80
25732;DHT22;13585;50.864;4.406;2023-06-19T04:06:12;30.00;48.80
25732;DHT22;13585;50.864;4.406;2023-06-19T04:08:43;30.00;48.70
25732;DHT22;13585;50.864;4.406;2023-06-19T04:11:09;30.00;48.80
25732;DHT22;13585;50.864;4.406;2023-06-19T04:13:34;30.00;48.60
25732;DHT22;13585;50.864;4.406;2023-06-19T04:16:00;30.00;48.60
25732;DHT22;13585;50.864;4.406;2023-06-19T04:18:25;29.90;48.50
25732;DHT22;13585;50.864;4.406;2023-06-19T04:20:53;29.90;48.50
25732;DHT22;13585;50.864;4.406;2023-06-19T04:23:19;30.00;48.50
25732;DHT22;13585;50.864;4.406;2023-06-19T04:25:44;29.90;48.40
25732;DHT22;13585;50.864;4.406;2023-06-19T04:28:10;29.90;48.30
25732;DHT22;13585;50.864;4.406;2023-06-19T04:30:38;29.90;48.90
25732;DHT22;13585;50.864;4.406;2023-06-19T04:33:05;29.90;48.20
25732;DHT22;13585;50.864;4.406;2023-06-19T04:35:32;29.90;48.20
25732;DHT22;13585;50.864;4.406;2023-06-19T04:37:57;29.90;48.10
25732;DHT22;13585;50.864;4.406;2023-06-19T04:40:29;29.90;48.10
25732;DHT22;13585;50.864;4.406;2023-06-19T04:42:55;29.90;48.20
25732;DHT22;13585;50.864;4.406;2023-06-19T04:45:20;29.90;48.10
25732;DHT22;13585;50.864;4.406;2023-06-19T04:47:49;29.90;48.10
25732;DHT22;13585;50.864;4.406;2023-06-19T04:50:15;30.00;48.10
25732;DHT22;13585;50.864;4.406;2023-06-19T04:52:41;29.90;48.00
25732;DHT22;13585;50.864;4.406;2023-06-19T04:55:08;29.90;48.00
25732;DHT22;13585;50.864;4.406;2023-06-19T04:57:37;29.90;48.00
25732;DHT22;13585;50.864;4.406;2023-06-19T05:00:07;30.00;48.00
25732;DHT22;13585;50.864;4.406;2023-06-19T05:02:35;29.90;47.90
25732;DHT22;13585;50.864;4.406;2023-06-19T05:05:02;29.90;47.90
25732;DHT22;13585;50.864;4.406;2023-06-19T05:07:37;29.90;48.00
25732;DHT22;13585;50.864;4.406;2023-06-19T05:10:21;29.90;48.00
25732;DHT22;13585;50.864;4.406;2023-06-19T05:16:36;29.90;48.00
25732;DHT22;13585;50.864;4.406;2023-06-19T05:19:08;29.90;47.90
25732;DHT22;13585;50.864;4.406;2023-06-19T05:21:35;29.90;47.90
25732;DHT22;13585;50.864;4.406;2023-06-19T05:24:04;29.90;48.00
25732;DHT22;13585;50.864;4.406;2023-06-19T05:26:32;29.80;48.00
25732;DHT22;13585;50.864;4.406;2023-06-19T05:28:57;29.80;48.00
25732;DHT22;13585;50.864;4.406;2023-06-19T05:31:32;29.70;47.90
25732;DHT22;13585;50.864;4.406;2023-06-19T05:34:22;29.90;47.90
25732;DHT22;13585;50.864;4.406;2023-06-19T05:37:03;29.70;47.70
25732;DHT22;13585;50.864;4.406;2023-06-19T05:39:29;29.80;48.00
25732;DHT22;13585;50.864;4.406;2023-06-19T05:41:55;29.90;47.90
25732;DHT22;13585;50.864;4.406;2023-06-19T05:44:20;29.80;47.90
25732;DHT22;13585;50.864;4.406;2023-06-19T05:46:46;29.80;47.90
25732;DHT22;13585;50.864;4.406;2023-06-19T05:49:39;29.80;48.00
25732;DHT22;13585;50.864;4.406;2023-06-19T05:54:56;29.80;48.10
25732;DHT22;13585;50.864;4.406;2023-06-19T05:57:23;29.80;48.10
25732;DHT22;13585;50.864;4.406;2023-06-19T05:59:52;29.70;48.10
25732;DHT22;13585;50.864;4.406;2023-06-19T06:02:39;29.80;48.20
25732;DHT22;13585;50.864;4.406;2023-06-19T06:08:08;29.70;48.10
25732;DHT22;13585;50.864;4.406;2023-06-19T06:10:34;29.80;48.00
25732;DHT22;13585;50.864;4.406;2023-06-19T06:13:37;29.70;47.90
25732;DHT22;13585;50.864;4.406;2023-06-19T06:16:05;29.70;48.00
25732;DHT22;13585;50.864;4.406;2023-06-19T06:18:30;29.80;47.90
25732;DHT22;13585;50.864;4.406;2023-06-19T06:20:56;29.80;47.90
25732;DHT22;13585;50.864;4.406;2023-06-19T06:23:25;29.80;47.90
25732;DHT22;13585;50.864;4.406;2023-06-19T06:25:50;29.80;47.80
25732;DHT22;13585;50.864;4.406;2023-06-19T06:28:16;29.80;47.80
25732;DHT22;13585;50.864;4.406;2023-06-19T06:30:43;29.70;47.70
25732;DHT22;13585;50.864;4.406;2023-06-19T06:33:08;29.80;47.70
25732;DHT22;13585;50.864;4.406;2023-06-19T06:35:37;29.70;47.60
25732;DHT22;13585;50.864;4.406;2023-06-19T06:38:06;29.70;47.50
25732;DHT22;13585;50.864;4.406;2023-06-19T06:40:32;29.80;47.50
25732;DHT22;13585;50.864;4.406;2023-06-19T06:43:00;29.80;47.40
25732;DHT22;13585;50.864;4.406;2023-06-19T06:45:29;29.80;47.40
25732;DHT22;13585;50.864;4.406;2023-06-19T06:48:07;29.90;47.30
25732;DHT22;13585;50.864;4.406;2023-06-19T06:50:38;29.90;47.10
25732;DHT22;13585;50.864;4.406;2023-06-19T06:53:06;29.80;47.10
25732;DHT22;13585;50.864;4.406;2023-06-19T06:55:37;29.70;47.00
25732;DHT22;13585;50.864;4.406;2023-06-19T06:58:03;29.70;47.10
25732;DHT22;13585;50.864;4.406;2023-06-19T07:00:28;29.70;47.10
25732;DHT22;13585;50.864;4.406;2023-06-19T07:02:55;29.70;47.00
25732;DHT22;13585;50.864;4.406;2023-06-19T07:05:23;29.70;47.00
25732;DHT22;13585;50.864;4.406;2023-06-19T07:07:55;29.70;47.00
25732;DHT22;13585;50.864;4.406;2023-06-19T07:10:23;29.70;46.90
25732;DHT22;13585;50.864;4.406;2023-06-19T07:12:50;29.70;46.90
25732;DHT22;13585;50.864;4.406;2023-06-19T07:15:23;29.60;46.80
25732;DHT22;13585;50.864;4.406;2023-06-19T07:17:50;29.60;46.80
25732;DHT22;13585;50.864;4.406;2023-06-19T07:20:24;29.60;46.70
25732;DHT22;13585;50.864;4.406;2023-06-19T07:23:14;29.60;46.80
25732;DHT22;13585;50.864;4.406;2023-06-19T07:25:49;29.60;46.70
25732;DHT22;13585;50.864;4.406;2023-06-19T07:28:15;29.60;46.50
25732;DHT22;13585;50.864;4.406;2023-06-19T07:30:41;29.60;46.50
25732;DHT22;13585;50.864;4.406;2023-06-19T07:33:06;29.60;46.40
25732;DHT22;13585;50.864;4.406;2023-06-19T07:35:32;29.60;46.40
25732;DHT22;13585;50.864;4.406;2023-06-19T07:37:57;29.60;46.40
25732;DHT22;13585;50.864;4.406;2023-06-19T07:40:23;29.70;46.40
25732;DHT22;13585;50.864;4.406;2023-06-19T07:42:49;29.60;46.40
25732;DHT22;13585;50.864;4.406;2023-06-19T07:45:14;29.60;46.40
25732;DHT22;13585;50.864;4.406;2023-06-19T07:47:40;29.60;46.50
25732;DHT22;13585;50.864;4.406;2023-06-19T07:50:06;29.60;46.40
25732;DHT22;13585;50.864;4.406;2023-06-19T07:52:32;29.70;46.40
25732;DHT22;13585;50.864;4.406;2023-06-19T07:54:58;29.60;46.40
25732;DHT22;13585;50.864;4.406;2023-06-19T07:57:25;29.60;46.50
25732;DHT22;13585;50.864;4.406;2023-06-19T07:59:59;29.60;46.50
25732;DHT22;13585;50.864;4.406;2023-06-19T08:02:34;29.70;46.60
25732;DHT22;13585;50.864;4.406;2023-06-19T08:04:59;29.70;46.60
25732;DHT22;13585;50.864;4.406;2023-06-19T08:07:53;29.70;46.60
25732;DHT22;13585;50.864;4.406;2023-06-19T08:10:37;29.70;46.70
25732;DHT22;13585;50.864;4.406;2023-06-19T08:13:02;29.80;46.70
25732;DHT22;13585;50.864;4.406;2023-06-19T08:15:37;29.80;46.60
25732;DHT22;13585;50.864;4.406;2023-06-19T08:21:08;29.90;46.70
25732;DHT22;13585;50.864;4.406;2023-06-19T08:23:43;29.90;46.60
25732;DHT22;13585;50.864;4.406;2023-06-19T08:26:18;29.90;46.80
25732;DHT22;13585;50.864;4.406;2023-06-19T08:28:44;29.90;46.80
25732;DHT22;13585;50.864;4.406;2023-06-19T08:31:10;29.90;46.60
25732;DHT22;13585;50.864;4.406;2023-06-19T08:33:35;29.90;46.60
25732;DHT22;13585;50.864;4.406;2023-06-19T08:36:01;29.90;47.20
25732;DHT22;13585;50.864;4.406;2023-06-19T08:38:29;29.90;46.60
25732;DHT22;13585;50.864;4.406;2023-06-19T08:40:55;29.90;46.60
25732;DHT22;13585;50.864;4.406;2023-06-19T08:43:21;29.90;46.60
25732;DHT22;13585;50.864;4.406;2023-06-19T08:46:13;29.90;46.50
25732;DHT22;13585;50.864;4.406;2023-06-19T08:48:39;29.90;46.60
25732;DHT22;13585;50.864;4.406;2023-06-19T08:51:05;30.00;46.50
25732;DHT22;13585;50.864;4.406;2023-06-19T08:53:33;29.90;46.40
25732;DHT22;13585;50.864;4.406;2023-06-19T08:56:03;29.90;46.40
25732;DHT22;13585;50.864;4.406;2023-06-19T08:58:29;29.90;46.50
25732;DHT22;13585;50.864;4.406;2023-06-19T09:00:57;30.00;46.40
25732;DHT22;13585;50.864;4.406;2023-06-19T09:03:23;30.00;46.30
25732;DHT22;13585;50.864;4.406;2023-06-19T09:05:49;30.00;46.30
25732;DHT22;13585;50.864;4.406;2023-06-19T09:08:19;30.00;46.30
25732;DHT22;13585;50.864;4.406;2023-06-19T09:10:59;30.00;46.20
25732;DHT22;13585;50.864;4.406;2023-06-19T09:13:25;29.90;46.30
25732;DHT22;13585;50.864;4.406;2023-06-19T09:15:58;29.90;46.20
25732;DHT22;13585;50.864;4.406;2023-06-19T09:18:25;30.00;46.20
25732;DHT22;13585;50.864;4.406;2023-06-19T09:20:53;29.90;46.10
25732;DHT22;13585;50.864;4.406;2023-06-19T09:23:20;30.00;46.20
25732;DHT22;13585;50.864;4.406;2023-06-19T09:25:57;29.90;46.20
25732;DHT22;13585;50.864;4.406;2023-06-19T09:28:25;29.90;46.20
25732;DHT22;13585;50.864;4.406;2023-06-19T09:31:09;30.00;46.20
25732;DHT22;13585;50.864;4.406;2023-06-19T09:33:36;29.90;46.30
25732;DHT22;13585;50.864;4.406;2023-06-19T09:36:04;30.00;46.20
25732;DHT22;13585;50.864;4.406;2023-06-19T09:38:37;30.00;46.20
25732;DHT22;13585;50.864;4.406;2023-06-19T09:41:05;29.90;46.30
25732;DHT22;13585;50.864;4.406;2023-06-19T09:43:48;29.90;46.30
25732;DHT22;13585;50.864;4.406;2023-06-19T09:46:17;29.90;46.40
25732;DHT22;13585;50.864;4.406;2023-06-19T09:48:51;29.90;46.40
25732;DHT22;13585;50.864;4.406;2023-06-19T09:51:22;29.90;46.40
25732;DHT22;13585;50.864;4.406;2023-06-19T09:53:49;29.90;46.30
25732;DHT22;13585;50.864;4.406;2023-06-19T09:56:17;29.90;46.30
25732;DHT22;13585;50.864;4.406;2023-06-19T09:58:47;29.90;46.30
25732;DHT22;13585;50.864;4.406;2023-06-19T10:01:15;29.90;46.30
25732;DHT22;13585;50.864;4.406;2023-06-19T10:03:43;29.90;46.30
25732;DHT22;13585;50.864;4.406;2023-06-19T10:06:16;30.00;45.90
25732;DHT22;13585;50.864;4.406;2023-06-19T10:08:43;30.00;45.80
25732;DHT22;13585;50.864;4.406;2023-06-19T10:13:37;30.00;45.90
25732;DHT22;13585;50.864;4.406;2023-06-19T10:16:07;29.90;46.50
25732;DHT22;13585;50.864;4.406;2023-06-19T10:18:43;29.90;45.90
25732;DHT22;13585;50.864;4.406;2023-06-19T10:21:28;29.90;46.50
25732;DHT22;13585;50.864;4.406;2023-06-19T10:23:57;29.90;46.50
25732;DHT22;13585;50.864;4.406;2023-06-19T10:26:35;29.90;46.50
25732;DHT22;13585;50.864;4.406;2023-06-19T10:29:02;29.90;46.60
25732;DHT22;13585;50.864;4.406;2023-06-19T10:31:38;29.90;46.50
25732;DHT22;13585;50.864;4.406;2023-06-19T10:34:07;29.90;46.50
25732;DHT22;13585;50.864;4.406;2023-06-19T10:36:32;29.80;46.50
25732;DHT22;13585;50.864;4.406;2023-06-19T10:41:49;29.80;46.50
25732;DHT22;13585;50.864;4.406;2023-06-19T10:44:27;29.90;46.50
25732;DHT22;13585;50.864;4.406;2023-06-19T10:46:53;29.90;46.60
25732;DHT22;13585;50.864;4.406;2023-06-19T10:49:30;29.90;46.50
25732;DHT22;13585;50.864;4.406;2023-06-19T10:52:03;29.90;46.70
25732;DHT22;13585;50.864;4.406;2023-06-19T10:54:29;29.90;46.70
25732;DHT22;13585;50.864;4.406;2023-06-19T10:56:58;30.00;46.80
25732;DHT22;13585;50.864;4.406;2023-06-19T10:59:28;30.00;46.90
25732;DHT22;13585;50.864;4.406;2023-06-19T11:02:03;29.90;46.80
25732;DHT22;13585;50.864;4.406;2023-06-19T11:04:31;30.00;47.00
25732;DHT22;13585;50.864;4.406;2023-06-19T11:07:28;30.00;46.90
25732;DHT22;13585;50.864;4.406;2023-06-19T11:10:00;30.00;47.00
25732;DHT22;13585;50.864;4.406;2023-06-19T11:12:28;30.00;47.00
25732;DHT22;13585;50.864;4.406;2023-06-19T11:14:54;30.00;47.00
25732;DHT22;13585;50.864;4.406;2023-06-19T11:17:23;30.00;47.00
25732;DHT22;13585;50.864;4.406;2023-06-19T11:19:50;30.00;47.00
25732;DHT22;13585;50.864;4.406;2023-06-19T11:22:16;30.00;47.10
25732;DHT22;13585;50.864;4.406;2023-06-19T11:27:45;30.00;47.20
25732;DHT22;13585;50.864;4.406;2023-06-19T11:30:29;30.10;47.20
25732;DHT22;13585;50.864;4.406;2023-06-19T11:32:56;30.00;47.20
25732;DHT22;13585;50.864;4.406;2023-06-19T11:35:33;30.10;47.30
25732;DHT22;13585;50.864;4.406;2023-06-19T11:38:02;30.00;47.20
25732;DHT22;13585;50.864;4.406;2023-06-19T11:40:28;30.10;47.30
25732;DHT22;13585;50.864;4.406;2023-06-19T11:42:57;30.10;47.30
25732;DHT22;13585;50.864;4.406;2023-06-19T11:45:23;30.10;47.30
25732;DHT22;13585;50.864;4.406;2023-06-19T11:47:49;30.10;47.30
25732;DHT22;13585;50.864;4.406;2023-06-19T11:50:15;30.10;47.30
25732;DHT22;13585;50.864;4.406;2023-06-19T11:52:43;30.10;48.00
25732;DHT22;13585;50.864;4.406;2023-06-19T11:55:15;30.10;47.30
25732;DHT22;13585;50.864;4.406;2023-06-19T11:57:41;30.10;47.20
25732;DHT22;13585;50.864;4.406;2023-06-19T12:00:18;30.10;47.20
25732;DHT22;13585;50.864;4.406;2023-06-19T12:02:50;30.10;47.30
25732;DHT22;13585;50.864;4.406;2023-06-19T12:05:17;30.20;47.30
25732;DHT22;13585;50.864;4.406;2023-06-19T12:07:43;30.20;47.10
25732;DHT22;13585;50.864;4.406;2023-06-19T12:10:08;30.20;47.20
25732;DHT22;13585;50.864;4.406;2023-06-19T12:12:36;30.20;47.10
25732;DHT22;13585;50.864;4.406;2023-06-19T12:15:04;30.20;47.00
25732;DHT22;13585;50.864;4.406;2023-06-19T12:17:30;30.20;47.00
25732;DHT22;13585;50.864;4.406;2023-06-19T12:19:56;30.20;47.00
25732;DHT22;13585;50.864;4.406;2023-06-19T12:22:22;30.20;47.00
25732;DHT22;13585;50.864;4.406;2023-06-19T12:24:48;30.20;46.90
25732;DHT22;13585;50.864;4.406;2023-06-19T12:27:14;30.20;46.90
25732;DHT22;13585;50.864;4.406;2023-06-19T12:29:39;30.20;46.80
25732;DHT22;13585;50.864;4.406;2023-06-19T12:32:05;30.20;46.80
25732;DHT22;13585;50.864;4.406;2023-06-19T12:34:31;30.20;46.70
25732;DHT22;13585;50.864;4.406;2023-06-19T12:36:59;30.20;46.70
25732;DHT22;13585;50.864;4.406;2023-06-19T12:39:25;30.20;46.70
25732;DHT22;13585;50.864;4.406;2023-06-19T12:41:52;30.30;46.60
25732;DHT22;13585;50.864;4.406;2023-06-19T12:44:17;30.30;45.90
25732;DHT22;13585;50.864;4.406;2023-06-19T12:46:43;30.30;45.50
25732;DHT22;13585;50.864;4.406;2023-06-19T12:49:09;30.30;44.40
25732;DHT22;13585;50.864;4.406;2023-06-19T12:51:34;30.30;43.80
25732;DHT22;13585;50.864;4.406;2023-06-19T12:54:00;30.30;43.30
25732;DHT22;13585;50.864;4.406;2023-06-19T12:56:26;30.30;43.20
25732;DHT22;13585;50.864;4.406;2023-06-19T12:58:54;30.30;42.90
25732;DHT22;13585;50.864;4.406;2023-06-19T13:01:20;30.20;43.10
25732;DHT22;13585;50.864;4.406;2023-06-19T13:03:45;30.20;43.20
25732;DHT22;13585;50.864;4.406;2023-06-19T13:06:11;30.20;42.80
25732;DHT22;13585;50.864;4.406;2023-06-19T13:08:40;30.20;42.60
25732;DHT22;13585;50.864;4.406;2023-06-19T13:11:11;30.20;42.80
25732;DHT22;13585;50.864;4.406;2023-06-19T13:13:37;30.20;42.60
25732;DHT22;13585;50.864;4.406;2023-06-19T13:16:20;30.20;42.40
25732;DHT22;13585;50.864;4.406;2023-06-19T13:18:46;30.20;42.50
25732;DHT22;13585;50.864;4.406;2023-06-19T13:21:14;30.20;42.50
25732;DHT22;13585;50.864;4.406;2023-06-19T13:23:40;30.20;43.00
25732;DHT22;13585;50.864;4.406;2023-06-19T13:26:06;30.10;42.50
25732;DHT22;13585;50.864;4.406;2023-06-19T13:28:32;30.20;41.90
25732;DHT22;13585;50.864;4.406;2023-06-19T13:30:58;30.20;41.80
25732;DHT22;13585;50.864;4.406;2023-06-19T13:33:37;30.20;41.50
25732;DHT22;13585;50.864;4.406;2023-06-19T13:36:03;30.20;41.10
25732;DHT22;13585;50.864;4.406;2023-06-19T13:38:28;30.20;40.80
25732;DHT22;13585;50.864;4.406;2023-06-19T13:40:54;30.20;41.00
25732;DHT22;13585;50.864;4.406;2023-06-19T13:43:20;30.20;40.80
25732;DHT22;13585;50.864;4.406;2023-06-19T13:45:48;30.20;41.10
25732;DHT22;13585;50.864;4.406;2023-06-19T13:48:14;30.20;41.30
25732;DHT22;13585;50.864;4.406;2023-06-19T13:50:40;30.10;41.50
25732;DHT22;13585;50.864;4.406;2023-06-19T13:53:06;30.10;41.60
25732;DHT22;13585;50.864;4.406;2023-06-19T13:55:32;30.10;41.80
25732;DHT22;13585;50.864;4.406;2023-06-19T13:57:57;30.10;41.80
25732;DHT22;13585;50.864;4.406;2023-06-19T14:00:23;30.10;42.10
25732;DHT22;13585;50.864;4.406;2023-06-19T14:02:48;30.10;42.10
25732;DHT22;13585;50.864;4.406;2023-06-19T14:05:15;30.20;42.30
25732;DHT22;13585;50.864;4.406;2023-06-19T14:07:42;30.10;42.20
25732;DHT22;13585;50.864;4.406;2023-06-19T14:10:09;30.20;42.40
25732;DHT22;13585;50.864;4.406;2023-06-19T14:12:35;30.10;42.40
25732;DHT22;13585;50.864;4.406;2023-06-19T14:15:01;30.20;42.40
25732;DHT22;13585;50.864;4.406;2023-06-19T14:17:28;30.20;42.50
25732;DHT22;13585;50.864;4.406;2023-06-19T14:19:54;30.10;42.40
25732;DHT22;13585;50.864;4.406;2023-06-19T14:22:22;30.20;42.60
25732;DHT22;13585;50.864;4.406;2023-06-19T14:24:48;30.20;42.70
25732;DHT22;13585;50.864;4.406;2023-06-19T14:27:14;30.20;42.90
25732;DHT22;13585;50.864;4.406;2023-06-19T14:29:42;30.20;43.00
25732;DHT22;13585;50.864;4.406;2023-06-19T14:32:07;30.20;43.00
25732;DHT22;13585;50.864;4.406;2023-06-19T14:34:33;30.20;43.10
25732;DHT22;13585;50.864;4.406;2023-06-19T14:37:01;30.20;43.20
25732;DHT22;13585;50.864;4.406;2023-06-19T14:39:27;30.20;43.10
25732;DHT22;13585;50.864;4.406;2023-06-19T14:41:52;30.20;43.10
25732;DHT22;13585;50.864;4.406;2023-06-19T14:44:18;30.20;43.00
25732;DHT22;13585;50.864;4.406;2023-06-19T14:46:44;30.20;43.00
25732;DHT22;13585;50.864;4.406;2023-06-19T14:49:11;30.20;43.00
25732;DHT22;13585;50.864;4.406;2023-06-19T14:51:39;30.20;43.00
25732;DHT22;13585;50.864;4.406;2023-06-19T14:54:05;30.20;43.00
25732;DHT22;13585;50.864;4.406;2023-06-19T14:56:31;30.20;43.00
25732;DHT22;13585;50.864;4.406;2023-06-19T14:58:56;30.20;43.10
25732;DHT22;13585;50.864;4.406;2023-06-19T15:01:24;30.20;43.20
25732;DHT22;13585;50.864;4.406;2023-06-19T15:04:17;30.20;43.10
25732;DHT22;13585;50.864;4.406;2023-06-19T15:06:49;30.20;43.20
25732;DHT22;13585;50.864;4.406;2023-06-19T15:09:21;30.20;43.20
25732;DHT22;13585;50.864;4.406;2023-06-19T15:11:46;30.20;43.20
25732;DHT22;13585;50.864;4.406;2023-06-19T15:14:12;30.20;43.10
25732;DHT22;13585;50.864;4.406;2023-06-19T15:16:38;30.20;43.20
25732;DHT22;13585;50.864;4.406;2023-06-19T15:19:03;30.20;43.20
25732;DHT22;13585;50.864;4.406;2023-06-19T15:21:29;30.20;43.10
25732;DHT22;13585;50.864;4.406;2023-06-19T15:23:55;30.20;43.10
25732;DHT22;13585;50.864;4.406;2023-06-19T15:26:21;30.20;43.10
25732;DHT22;13585;50.864;4.406;2023-06-19T15:28:47;30.30;43.20
25732;DHT22;13585;50.864;4.406;2023-06-19T15:31:15;30.20;43.20
25732;DHT22;13585;50.864;4.406;2023-06-19T15:33:42;30.20;43.20
25732;DHT22;13585;50.864;4.406;2023-06-19T15:36:07;30.30;43.20
25732;DHT22;13585;50.864;4.406;2023-06-19T15:38:33;30.20;43.10
25732;DHT22;13585;50.864;4.406;2023-06-19T15:40:59;30.20;43.20
25732;DHT22;13585;50.864;4.406;2023-06-19T15:43:29;30.20;44.30
25732;DHT22;13585;50.864;4.406;2023-06-19T15:45:56;30.20;43.20
25732;DHT22;13585;50.864;4.406;2023-06-19T15:48:22;30.20;43.20
25732;DHT22;13585;50.864;4.406;2023-06-19T15:50:48;30.20;43.20
25732;DHT22;13585;50.864;4.406;2023-06-19T15:53:14;30.30;43.30
25732;DHT22;13585;50.864;4.406;2023-06-19T15:55:39;30.20;43.30
25732;DHT22;13585;50.864;4.406;2023-06-19T15:58:07;30.20;43.20
25732;DHT22;13585;50.864;4.406;2023-06-19T16:00:33;30.20;43.00
25732;DHT22;13585;50.864;4.406;2023-06-19T16:03:06;30.20;43.10